Time;durP1;ratioP1;P1;durP2;ratioP2;P2;SDS_P1;SDS_P2;PMS_P1;PMS_P2;Temp;Humidity;BMP_temperature;BMP_pressure;BME280_temperature;BME280_humidity;BME280_pressure;Samples;Min_cycle;Max_cycle;Signal;HPM_P1;HPM_P2
2023/12/26 00:00:18;;;;;;;2.20;2.00;;;;;;;10.03;51.92;94371.75;4993128;28;20202;-85
2023/12/26 00:02:44;;;;;;;3.87;2.70;;;;;;;10.04;51.69;94370.78;4991032;28;20204;-85
2023/12/26 00:05:11;;;;;;;5.17;3.47;;;;;;;10.01;51.99;94371.97;4992468;28;20223;-85
2023/12/26 00:07:37;;;;;;;4.40;2.50;;;;;;;9.99;51.99;94352.63;4993020;28;20214;-85
2023/12/26 00:10:10;;;;;;;3.70;1.93;;;;;;;9.92;51.85;94331.28;4992156;28;20207;-85
2023/12/26 00:12:38;;;;;;;2.30;2.00;;;;;;;9.79;52.30;94362.94;4992544;28;20215;-88
2023/12/26 00:15:05;;;;;;;2.40;2.17;;;;;;;9.76;52.58;94372.84;4992092;28;20234;-85
2023/12/26 00:17:31;;;;;;;2.00;1.80;;;;;;;9.67;52.79;94375.63;4976711;28;20206;-85
2023/12/26 00:19:58;;;;;;;2.40;2.20;;;;;;;9.65;53.10;94389.66;4991280;28;20302;-85
2023/12/26 00:22:24;;;;;;;2.30;2.00;;;;;;;9.63;52.63;94373.63;4992388;28;20208;-85
2023/12/26 00:24:52;;;;;;;4.00;1.97;;;;;;;9.64;52.68;94373.44;4991928;28;20716;-86
2023/12/26 00:27:19;;;;;;;2.20;2.00;;;;;;;9.66;52.72;94376.59;4992313;28;20876;-85
2023/12/26 00:29:46;;;;;;;2.10;1.90;;;;;;;9.66;52.74;94378.38;4991215;28;20196;-85
2023/12/26 00:32:15;;;;;;;1.80;1.67;;;;;;;9.67;52.76;94379.97;4991891;28;20604;-85
2023/12/26 00:34:41;;;;;;;2.87;1.80;;;;;;;9.67;52.75;94365.34;4985402;28;20219;-85
2023/12/26 00:37:09;;;;;;;4.10;2.00;;;;;;;9.66;53.08;94376.59;4991868;28;20207;-85
2023/12/26 00:39:40;;;;;;;1.97;1.77;;;;;;;9.61;53.27;94376.44;4991433;28;20227;-85
2023/12/26 00:42:07;;;;;;;3.27;1.77;;;;;;;9.60;53.36;94382.56;4991276;28;20258;-86
2023/12/26 00:44:33;;;;;;;2.07;1.77;;;;;;;9.58;53.12;94402.53;4991164;28;20243;-86
2023/12/26 00:47:01;;;;;;;2.50;1.90;;;;;;;9.55;53.47;94417.53;4991056;28;20200;-85
2023/12/26 00:49:28;;;;;;;1.77;1.60;;;;;;;9.50;54.19;94430.97;4989776;28;20209;-86
2023/12/26 00:51:54;;;;;;;2.07;1.67;;;;;;;9.47;54.32;94444.22;4991444;28;20322;-85
2023/12/26 00:54:20;;;;;;;1.60;1.50;;;;;;;9.46;54.44;94452.91;4991241;28;20204;-85
2023/12/26 00:56:47;;;;;;;2.23;1.70;;;;;;;9.44;54.78;94462.56;4991141;28;20210;-85
2023/12/26 00:59:13;;;;;;;2.60;1.70;;;;;;;9.41;55.00;94483.53;4991331;28;20204;-85
2023/12/26 01:01:41;;;;;;;2.03;1.83;;;;;;;9.37;54.91;94484.91;4991293;28;20635;-85
2023/12/26 01:04:09;;;;;;;1.90;1.70;;;;;;;9.38;55.33;94496.78;4991610;28;20207;-85
2023/12/26 01:06:36;;;;;;;1.93;1.73;;;;;;;9.36;55.54;94511.59;4986998;28;20227;-85
2023/12/26 01:09:02;;;;;;;2.73;2.07;;;;;;;9.34;55.85;94519.50;4991326;28;20214;-86
2023/12/26 01:11:28;;;;;;;1.73;1.43;;;;;;;9.32;55.96;94536.88;4990743;28;20219;-85
2023/12/26 01:13:57;;;;;;;1.80;1.60;;;;;;;9.29;56.51;94544.16;4991314;28;20199;-85
2023/12/26 01:16:27;;;;;;;1.70;1.60;;;;;;;9.28;56.86;94560.56;4991298;28;20245;-84
2023/12/26 01:18:53;;;;;;;2.00;1.80;;;;;;;9.28;57.04;94575.97;4990957;28;20204;-85
2023/12/26 01:21:21;;;;;;;3.17;2.10;;;;;;;9.25;57.52;94592.56;4990450;28;20199;-86
2023/12/26 01:23:48;;;;;;;1.97;1.50;;;;;;;9.26;57.36;94606.19;4986025;28;20200;-85
2023/12/26 01:26:15;;;;;;;1.60;1.50;;;;;;;9.28;57.47;94606.78;4969913;28;20249;-85
2023/12/26 01:28:41;;;;;;;1.73;1.40;;;;;;;9.27;57.47;94623.97;4989603;28;20598;-85
2023/12/26 01:31:08;;;;;;;1.77;1.50;;;;;;;9.30;57.92;94615.88;4991097;28;20701;-85
2023/12/26 01:33:34;;;;;;;2.20;1.67;;;;;;;9.31;57.87;94614.13;4991146;28;20203;-86
2023/12/26 01:36:01;;;;;;;2.13;1.50;;;;;;;9.33;57.71;94633.50;4991024;28;20230;-85
2023/12/26 01:38:28;;;;;;;2.40;1.60;;;;;;;9.30;57.84;94626.16;4988813;28;20214;-85
2023/12/26 01:40:55;;;;;;;1.50;1.40;;;;;;;9.32;58.14;94634.47;4990326;28;20199;-85
2023/12/26 01:43:21;;;;;;;2.33;1.70;;;;;;;9.26;58.01;94640.38;4990552;28;20218;-85
2023/12/26 01:45:49;;;;;;;2.20;1.57;;;;;;;9.22;58.69;94662.31;4990657;28;20222;-85
2023/12/26 01:48:16;;;;;;;1.53;1.30;;;;;;;9.23;58.24;94666.47;4991203;28;20211;-85
2023/12/26 01:50:43;;;;;;;2.70;1.70;;;;;;;9.22;58.75;94667.44;4991056;28;20207;-84
2023/12/26 01:53:10;;;;;;;2.87;1.80;;;;;;;9.12;58.98;94679.81;4989646;28;20299;-88
2023/12/26 01:55:37;;;;;;;2.17;1.70;;;;;;;9.17;58.67;94671.56;4986927;28;20223;-87
2023/12/26 01:58:05;;;;;;;1.53;1.43;;;;;;;9.16;59.00;94665.63;4990588;28;20211;-88
2023/12/26 02:00:31;;;;;;;2.43;1.70;;;;;;;9.21;58.85;94670.19;4990325;28;20688;-87
2023/12/26 02:03:00;;;;;;;2.17;1.40;;;;;;;9.22;58.66;94664.88;4990207;28;20200;-88
2023/12/26 02:05:27;;;;;;;2.53;1.60;;;;;;;9.19;58.92;94667.81;4990268;28;20216;-88
2023/12/26 02:07:54;;;;;;;1.77;1.30;;;;;;;9.16;58.85;94667.41;4990062;28;20207;-87
2023/12/26 02:10:20;;;;;;;2.20;1.60;;;;;;;9.08;59.23;94680.38;4985021;28;20204;-87
2023/12/26 02:12:48;;;;;;;2.93;1.70;;;;;;;9.02;59.16;94681.16;4977706;28;20226;-87
2023/12/26 02:15:15;;;;;;;5.23;2.53;;;;;;;8.92;59.88;94691.75;4990131;28;20219;-87
2023/12/26 02:17:44;;;;;;;3.40;1.87;;;;;;;8.98;59.30;94678.97;4990791;28;20199;-87
2023/12/26 02:20:11;;;;;;;3.73;2.03;;;;;;;8.95;59.54;94684.47;4990296;28;20212;-88
2023/12/26 02:22:38;;;;;;;3.00;1.70;;;;;;;8.99;59.24;94684.88;4990601;28;20203;-87
2023/12/26 02:25:07;;;;;;;3.43;1.63;;;;;;;8.99;59.21;94674.63;4989287;28;20234;-87
2023/12/26 02:27:37;;;;;;;1.70;1.50;;;;;;;8.99;59.15;94672.03;4988718;28;20231;-87
2023/12/26 02:30:07;;;;;;;2.13;1.70;;;;;;;8.95;59.56;94679.31;4988271;28;20203;-87
2023/12/26 02:32:35;;;;;;;2.40;1.50;;;;;;;8.98;59.26;94675.59;4990202;28;20227;-88
2023/12/26 02:35:02;;;;;;;3.17;1.60;;;;;;;8.98;59.16;94667.91;4991386;28;20231;-87
2023/12/26 02:37:29;;;;;;;1.77;1.50;;;;;;;8.96;59.54;94673.22;4998195;28;20439;-85
2023/12/26 02:39:55;;;;;;;1.67;1.57;;;;;;;8.96;59.34;94664.72;4989682;28;20194;-85
2023/12/26 02:42:24;;;;;;;2.97;2.00;;;;;;;8.78;60.00;94667.78;4988232;28;20226;-88
2023/12/26 02:44:56;;;;;;;1.60;1.50;;;;;;;8.70;60.00;94679.94;4988798;28;20220;-88
2023/12/26 02:47:22;;;;;;;2.53;1.60;;;;;;;8.65;60.11;94676.19;4989963;28;20589;-87
2023/12/26 02:49:49;;;;;;;1.83;1.70;;;;;;;8.61;60.07;94681.88;4989413;28;20808;-87
2023/12/26 02:52:16;;;;;;;2.17;1.70;;;;;;;8.58;60.35;94685.59;4989828;28;20223;-87
2023/12/26 02:54:42;;;;;;;3.73;1.83;;;;;;;8.58;60.14;94684.81;4989950;28;20228;-87
2023/12/26 02:57:09;;;;;;;1.50;1.40;;;;;;;8.51;60.33;94689.06;4990733;28;20199;-88
2023/12/26 02:59:38;;;;;;;6.20;1.87;;;;;;;8.31;60.81;94699.94;4987790;28;20605;-88
2023/12/26 03:02:05;;;;;;;2.80;1.67;;;;;;;8.25;60.88;94716.06;4989895;28;20199;-87
2023/12/26 03:04:31;;;;;;;2.93;1.60;;;;;;;8.25;61.07;94710.94;4990015;28;20218;-88
2023/12/26 03:06:58;;;;;;;4.73;1.80;;;;;;;8.26;61.08;94715.09;4993483;28;20643;-87
2023/12/26 03:09:24;;;;;;;2.23;1.80;;;;;;;8.27;60.93;94706.41;4993393;28;20214;-87
2023/12/26 03:11:51;;;;;;;1.60;1.50;;;;;;;8.28;60.82;94702.88;4993577;28;20232;-87
2023/12/26 03:14:17;;;;;;;2.20;1.80;;;;;;;8.27;60.57;94700.50;4993139;28;20195;-87
2023/12/26 03:16:45;;;;;;;1.97;1.70;;;;;;;8.25;61.01;94708.38;4989763;28;20207;-87
2023/12/26 03:19:11;;;;;;;2.00;1.80;;;;;;;8.22;61.24;94701.06;4993088;28;20199;-88
2023/12/26 03:21:39;;;;;;;1.93;1.80;;;;;;;8.27;61.09;94708.19;4993830;28;20203;-87
2023/12/26 03:24:06;;;;;;;2.40;1.60;;;;;;;8.26;61.17;94714.31;4993029;28;20203;-88
2023/12/26 03:26:33;;;;;;;2.33;1.70;;;;;;;8.21;61.09;94703.78;4993482;28;20580;-87
2023/12/26 03:28:59;;;;;;;1.90;1.57;;;;;;;8.14;61.55;94713.97;4992679;28;20207;-87
2023/12/26 03:31:26;;;;;;;2.77;1.73;;;;;;;8.00;61.59;94719.97;4992170;28;20227;-87
2023/12/26 03:33:55;;;;;;;3.00;1.70;;;;;;;7.95;61.92;94732.50;4993602;28;20207;-87
2023/12/26 03:36:21;;;;;;;2.20;1.70;;;;;;;7.82;62.09;94743.44;4997016;28;20215;-87
2023/12/26 03:38:47;;;;;;;2.33;1.67;;;;;;;7.86;61.75;94736.97;4993121;28;20207;-87
2023/12/26 03:41:14;;;;;;;1.83;1.40;;;;;;;7.87;62.05;94741.13;4992814;28;20199;-88
2023/12/26 03:43:40;;;;;;;1.90;1.70;;;;;;;7.89;62.11;94746.03;4992802;28;20208;-87
2023/12/26 03:46:07;;;;;;;2.40;1.63;;;;;;;7.93;61.57;94744.72;4992742;28;20231;-88
2023/12/26 03:48:38;;;;;;;2.80;1.90;;;;;;;7.96;61.42;94737.47;4991062;28;20679;-88
2023/12/26 03:51:06;;;;;;;2.07;1.63;;;;;;;7.89;61.92;94731.47;4992353;28;20210;-87
2023/12/26 03:53:32;;;;;;;2.13;1.60;;;;;;;7.89;61.22;94731.47;4992953;28;20246;-87
2023/12/26 03:55:59;;;;;;;1.77;1.50;;;;;;;7.83;61.93;94737.31;4993174;28;20216;-87
2023/12/26 03:58:25;;;;;;;3.77;1.80;;;;;;;7.72;62.34;94762.59;4992196;28;20200;-87
2023/12/26 04:00:52;;;;;;;2.37;1.67;;;;;;;7.74;62.03;94755.53;4992657;28;20589;-88
2023/12/26 04:03:18;;;;;;;2.00;1.80;;;;;;;7.76;62.00;94749.25;4990311;28;20214;-87
2023/12/26 04:05:44;;;;;;;1.90;1.70;;;;;;;7.79;61.97;94745.56;4992344;28;20234;-87
2023/12/26 04:08:12;;;;;;;2.50;1.80;;;;;;;7.81;61.76;94746.97;4993124;28;20203;-87
2023/12/26 04:10:39;;;;;;;2.20;1.60;;;;;;;7.82;61.75;94740.88;4992177;28;20195;-87
2023/12/26 04:13:05;;;;;;;2.23;1.70;;;;;;;7.64;62.55;94750.69;4992479;28;20558;-87
2023/12/26 04:15:34;;;;;;;1.83;1.60;;;;;;;7.54;62.98;94766.34;4991998;28;20234;-88
2023/12/26 04:18:02;;;;;;;3.33;1.90;;;;;;;7.54;62.50;94768.91;4991874;28;20204;-87
2023/12/26 04:20:30;;;;;;;3.87;1.90;;;;;;;7.49;63.04;94773.78;4989779;28;20214;-88
2023/12/26 04:22:57;;;;;;;3.07;2.00;;;;;;;7.47;62.85;94775.72;4991690;28;20693;-87
2023/12/26 04:25:25;;;;;;;2.37;1.80;;;;;;;7.50;62.64;94769.44;4991665;28;20230;-87
2023/12/26 04:27:51;;;;;;;2.03;1.83;;;;;;;7.49;62.55;94753.28;4992020;28;20210;-87
2023/12/26 04:30:18;;;;;;;1.97;1.70;;;;;;;7.46;61.92;94737.47;4990532;28;20562;-87
2023/12/26 04:32:45;;;;;;;1.73;1.40;;;;;;;7.54;61.84;94732.25;4991353;28;20754;-87
2023/12/26 04:35:19;;;;;;;2.73;1.40;;;;;;;7.49;61.24;94696.16;4990514;28;20250;-88
2023/12/26 04:37:46;;;;;;;1.57;1.37;;;;;;;7.56;60.75;94666.25;4990911;28;20290;-86
2023/12/26 04:40:12;;;;;;;2.00;1.37;;;;;;;7.66;60.06;94642.94;4991712;28;20208;-87
2023/12/26 04:42:40;;;;;;;1.57;1.20;;;;;;;7.76;59.62;94616.03;4991807;28;20254;-88
2023/12/26 04:45:08;;;;;;;1.70;1.40;;;;;;;7.86;59.15;94588.34;4991630;28;20220;-86
2023/12/26 04:47:33;;;;;;;1.47;1.30;;;;;;;8.01;58.52;94574.66;4992004;28;20609;-86
2023/12/26 04:50:00;;;;;;;2.03;1.50;;;;;;;8.12;57.84;94533.91;4990951;28;20207;-86
2023/12/26 04:52:26;;;;;;;1.40;1.20;;;;;;;8.18;56.89;94512.66;4989524;28;20697;-85
2023/12/26 04:54:53;;;;;;;1.20;1.10;;;;;;;8.27;56.50;94475.63;4990640;28;20224;-86
2023/12/26 04:57:19;;;;;;;1.30;1.20;;;;;;;8.36;55.57;94455.78;4991425;28;20195;-86
2023/12/26 04:59:47;;;;;;;1.77;1.10;;;;;;;8.37;54.84;94413.78;4990893;28;20740;-86
2023/12/26 05:02:13;;;;;;;1.37;1.27;;;;;;;8.42;54.83;94396.06;4990590;28;20681;-86
2023/12/26 05:04:40;;;;;;;1.80;1.40;;;;;;;8.55;54.73;94396.09;4990097;28;20234;-86
2023/12/26 05:07:09;;;;;;;1.20;1.10;;;;;;;8.65;54.17;94370.88;4990239;28;20681;-87
2023/12/26 05:09:36;;;;;;;1.13;1.03;;;;;;;8.70;53.74;94354.88;4988208;28;20208;-87
2023/12/26 05:12:03;;;;;;;1.30;1.20;;;;;;;8.72;53.87;94352.91;4990273;28;20716;-86
2023/12/26 05:14:29;;;;;;;2.40;1.40;;;;;;;8.72;53.80;94358.03;4990412;28;20208;-87
2023/12/26 05:16:57;;;;;;;2.40;1.30;;;;;;;8.77;53.70;94354.88;4990503;28;20222;-87
2023/12/26 05:19:23;;;;;;;2.83;1.10;;;;;;;8.79;53.72;94369.09;4989733;28;20207;-86
2023/12/26 05:21:53;;;;;;;1.47;1.33;;;;;;;8.80;53.85;94377.59;4990486;28;20199;-87
2023/12/26 05:24:20;;;;;;;1.83;1.30;;;;;;;8.84;53.82;94386.50;4986233;28;20223;-87
2023/12/26 05:26:46;;;;;;;1.67;1.40;;;;;;;8.81;53.93;94405.63;4990168;28;20230;-87
2023/12/26 05:29:13;;;;;;;2.57;1.40;;;;;;;8.85;54.13;94409.38;4989175;28;20561;-87
2023/12/26 05:31:39;;;;;;;1.40;1.20;;;;;;;8.80;54.31;94423.78;4990260;28;20207;-86
2023/12/26 05:34:08;;;;;;;2.40;1.50;;;;;;;8.80;54.36;94421.22;4989802;28;20203;-87
2023/12/26 05:36:36;;;;;;;2.33;1.43;;;;;;;8.81;54.66;94436.44;4989681;28;20223;-86
2023/12/26 05:39:05;;;;;;;1.30;1.20;;;;;;;8.83;54.44;94449.06;4989433;28;20204;-86
2023/12/26 05:41:31;;;;;;;1.87;1.40;;;;;;;8.82;54.89;94455.19;4987821;28;20212;-86
2023/12/26 05:43:58;;;;;;;2.23;1.30;;;;;;;8.82;54.89;94473.94;4989892;28;20233;-87
2023/12/26 05:46:29;;;;;;;2.13;1.27;;;;;;;8.75;55.25;94488.50;4989495;28;20223;-87
2023/12/26 05:48:55;;;;;;;2.33;1.50;;;;;;;8.79;55.10;94504.31;4989109;28;20204;-86
2023/12/26 05:51:28;;;;;;;1.10;1.10;;;;;;;8.76;55.25;94520.88;4989104;28;20206;-87
2023/12/26 05:53:55;;;;;;;1.07;0.97;;;;;;;8.84;55.45;94519.94;4989657;28;20239;-87
2023/12/26 05:56:21;;;;;;;1.60;1.50;;;;;;;8.78;55.64;94534.31;4989617;28;20227;-87
2023/12/26 05:58:47;;;;;;;2.53;1.30;;;;;;;8.79;55.58;94559.00;4989676;28;20204;-87
2023/12/26 06:01:15;;;;;;;1.40;1.30;;;;;;;8.77;55.83;94563.53;4988688;28;20666;-86
2023/12/26 06:03:41;;;;;;;1.77;1.27;;;;;;;8.73;56.13;94593.13;4984235;28;20249;-87
2023/12/26 06:06:14;;;;;;;1.70;1.07;;;;;;;8.68;56.32;94597.22;4977497;28;20227;-87
2023/12/26 06:08:42;;;;;;;1.30;1.20;;;;;;;8.72;56.33;94611.25;4989133;28;20222;-86
2023/12/26 06:11:09;;;;;;;3.10;1.30;;;;;;;8.74;56.78;94622.94;4989170;28;20245;-86
2023/12/26 06:13:36;;;;;;;2.13;1.47;;;;;;;8.76;57.12;94650.97;4989148;28;20721;-87
2023/12/26 06:16:03;;;;;;;3.00;1.40;;;;;;;8.74;57.16;94650.38;4987920;28;20219;-86
2023/12/26 06:18:29;;;;;;;3.83;1.20;;;;;;;8.77;57.22;94662.81;4987511;28;20286;-86
2023/12/26 06:21:03;;;;;;;1.63;1.37;;;;;;;8.86;56.85;94672.75;4988772;28;20226;-87
2023/12/26 06:23:31;;;;;;;2.83;1.23;;;;;;;8.70;57.06;94674.81;4988406;28;20257;-87
2023/12/26 06:25:59;;;;;;;1.67;1.17;;;;;;;8.75;57.34;94700.72;4988380;28;20303;-87
2023/12/26 06:28:27;;;;;;;2.67;1.30;;;;;;;8.82;57.30;94706.69;4987233;28;20195;-87
2023/12/26 06:31:03;;;;;;;4.03;1.20;;;;;;;8.75;57.58;94704.06;4992774;28;20199;-87
2023/12/26 06:33:29;;;;;;;1.70;1.30;;;;;;;8.73;57.63;94721.44;4997080;28;20718;-87
2023/12/26 06:35:56;;;;;;;1.97;1.30;;;;;;;8.79;57.76;94733.53;4993522;28;20882;-86
2023/12/26 06:38:22;;;;;;;1.63;1.20;;;;;;;8.82;57.69;94740.06;4988626;28;20233;-87
2023/12/26 06:40:49;;;;;;;1.63;1.20;;;;;;;8.81;57.87;94746.16;4988769;28;20547;-87
2023/12/26 06:43:28;;;;;;;2.07;1.27;;;;;;;8.77;57.98;94757.78;4989191;28;20203;-87
2023/12/26 06:45:55;;;;;;;2.70;1.17;;;;;;;8.72;58.36;94767.81;4988709;28;20257;-87
2023/12/26 06:48:21;;;;;;;2.83;1.10;;;;;;;8.77;58.41;94770.63;4988827;28;20294;-87
2023/12/26 06:50:48;;;;;;;1.60;1.37;;;;;;;8.72;58.38;94785.75;4983642;28;20200;-86
2023/12/26 06:53:14;;;;;;;1.60;1.10;;;;;;;8.60;58.92;94793.97;4988580;28;20234;-87
2023/12/26 06:55:41;;;;;;;1.87;1.30;;;;;;;8.59;59.16;94807.78;4990761;28;20227;-86
2023/12/26 06:58:08;;;;;;;1.53;1.13;;;;;;;8.64;59.13;94814.94;4996159;28;20196;-86
2023/12/26 07:00:36;;;;;;;1.43;1.10;;;;;;;8.68;58.88;94835.84;4999225;28;20226;-87
2023/12/26 07:03:03;;;;;;;1.93;1.40;;;;;;;8.73;58.91;94839.47;4986779;28;20242;-87
2023/12/26 07:05:29;;;;;;;2.03;1.20;;;;;;;8.70;59.05;94850.09;5003149;28;20223;-87
2023/12/26 07:07:55;;;;;;;2.23;1.43;;;;;;;8.71;59.13;94858.59;4993161;28;20226;-87
2023/12/26 07:10:22;;;;;;;2.20;1.30;;;;;;;8.74;59.20;94858.22;5000657;28;20578;-88
2023/12/26 07:13:01;;;;;;;1.90;1.40;;;;;;;8.70;59.28;94872.41;4997947;28;20223;-88
2023/12/26 07:15:28;;;;;;;1.87;1.30;;;;;;;8.65;59.87;94890.94;4994179;28;20222;-87
2023/12/26 07:17:56;;;;;;;2.63;1.23;;;;;;;8.74;59.81;94883.91;4998093;28;20202;-87
2023/12/26 07:20:22;;;;;;;1.10;1.00;;;;;;;8.72;59.58;94899.47;4995633;28;20199;-85
2023/12/26 07:22:51;;;;;;;2.20;1.33;;;;;;;8.76;59.52;94908.41;4990319;28;20200;-84
2023/12/26 07:25:19;;;;;;;2.10;1.50;;;;;;;8.73;59.97;94939.56;4995641;28;20625;-86
2023/12/26 07:27:47;;;;;;;4.17;1.60;;;;;;;8.77;59.64;94930.53;4998998;28;20191;-86
2023/12/26 07:30:14;;;;;;;1.87;1.30;;;;;;;8.81;59.88;94936.91;4986494;28;20203;-86
2023/12/26 07:32:39;;;;;;;1.77;1.33;;;;;;;8.79;59.83;94933.72;5008300;28;20285;-84
2023/12/26 07:35:08;;;;;;;2.60;1.43;;;;;;;8.78;59.97;94944.94;5007831;28;20218;-86
2023/12/26 07:37:38;;;;;;;2.87;1.37;;;;;;;8.71;60.18;94967.16;4997001;28;20573;-86
2023/12/26 07:40:11;;;;;;;2.47;1.40;;;;;;;8.76;60.36;94964.88;4985707;28;20249;-86
2023/12/26 07:42:38;;;;;;;2.83;1.40;;;;;;;8.77;60.21;94976.72;4988838;28;20218;-86
2023/12/26 07:45:05;;;;;;;2.37;1.40;;;;;;;8.89;59.86;94974.47;4988102;28;20787;-86
2023/12/26 07:47:45;;;;;;;;;;;;;;;;;;;;;
2023/12/26 07:50:28;;;;;;;;;;;;;;;;;;;;;
2023/12/26 07:52:54;;;;;;;2.20;1.30;;;;;;;8.94;60.11;94980.66;4990591;28;20701;-86
2023/12/26 07:55:21;;;;;;;1.83;1.20;;;;;;;8.98;59.97;94979.34;4989281;28;20219;-86
2023/12/26 07:57:50;;;;;;;1.90;1.50;;;;;;;9.02;61.19;95017.50;4991749;28;20214;-86
2023/12/26 08:00:17;;;;;;;4.80;1.90;;;;;;;9.26;66.99;95281.72;4993376;28;20637;-85
2023/12/26 08:02:43;;;;;;;2.50;1.50;;;;;;;9.54;67.43;95308.41;4993166;28;20191;-86
2023/12/26 08:05:10;;;;;;;3.30;1.40;;;;;;;9.62;60.26;95025.59;4991289;28;20220;-87
2023/12/26 08:07:38;;;;;;;2.53;1.33;;;;;;;9.52;59.76;94965.22;4991626;28;20203;-87
2023/12/26 08:10:05;;;;;;;2.93;1.50;;;;;;;9.58;59.46;94949.06;4991528;28;20199;-87
2023/12/26 08:12:34;;;;;;;1.93;1.30;;;;;;;9.57;59.41;94960.31;4989118;28;20235;-86
2023/12/26 08:15:01;;;;;;;1.53;1.23;;;;;;;9.62;59.05;94938.22;4990246;28;20223;-86
2023/12/26 08:17:27;;;;;;;2.23;1.30;;;;;;;9.60;59.31;94932.50;4990901;28;20200;-86
2023/12/26 08:19:54;;;;;;;1.43;1.33;;;;;;;9.66;59.15;94933.50;4994589;28;20259;-86
2023/12/26 08:22:20;;;;;;;2.03;1.20;;;;;;;9.59;59.00;94928.31;4993590;28;20548;-86
2023/12/26 08:24:48;;;;;;;1.93;1.40;;;;;;;9.67;58.83;94922.22;4990542;28;20227;-86
2023/12/26 08:27:23;;;;;;;2.70;1.60;;;;;;;9.72;58.64;94914.75;4988626;28;20216;-86
2023/12/26 08:29:50;;;;;;;2.13;1.40;;;;;;;9.82;58.78;94922.94;4983040;28;20203;-86
2023/12/26 08:32:16;;;;;;;2.63;1.30;;;;;;;10.08;58.02;94908.66;4991164;28;20196;-86
2023/12/26 08:34:44;;;;;;;1.37;1.10;;;;;;;10.54;57.22;94876.25;4990966;28;20251;-86
2023/12/26 08:37:11;;;;;;;2.37;1.40;;;;;;;10.84;56.03;94825.19;4990518;28;20203;-87
2023/12/26 08:39:46;;;;;;;2.20;1.30;;;;;;;10.61;56.15;94799.81;4990323;28;20212;-86
2023/12/26 08:42:13;;;;;;;2.03;1.27;;;;;;;10.50;56.37;94835.63;4989564;28;20273;-86
2023/12/26 08:44:40;;;;;;;1.40;1.30;;;;;;;10.22;56.88;94843.44;4985801;28;20335;-87
2023/12/26 08:47:06;;;;;;;2.00;1.40;;;;;;;10.11;57.16;94856.84;4990419;28;20214;-86
2023/12/26 08:49:33;;;;;;;1.73;1.27;;;;;;;10.13;57.45;94871.09;4990676;28;20225;-85
2023/12/26 08:52:00;;;;;;;2.00;1.43;;;;;;;10.05;57.30;94879.75;4990438;28;20210;-86
2023/12/26 08:54:26;;;;;;;1.70;1.40;;;;;;;10.02;57.57;94892.19;4989657;28;20733;-86
2023/12/26 08:56:53;;;;;;;2.07;1.30;;;;;;;9.92;57.55;94900.25;4989993;28;20223;-86
2023/12/26 08:59:20;;;;;;;2.73;1.40;;;;;;;9.86;57.77;94908.72;4988445;28;21131;-86
2023/12/26 09:01:47;;;;;;;1.67;1.23;;;;;;;9.87;57.77;94912.88;4989987;28;20606;-86
2023/12/26 09:04:13;;;;;;;1.50;1.40;;;;;;;9.86;57.91;94913.06;4989930;28;20577;-86
2023/12/26 09:06:43;;;;;;;1.20;1.10;;;;;;;9.88;57.95;94919.63;4990253;28;20358;-86
2023/12/26 09:09:09;;;;;;;1.90;1.30;;;;;;;9.87;57.84;94917.22;4989600;28;20222;-86
2023/12/26 09:11:36;;;;;;;1.33;1.10;;;;;;;9.85;57.89;94924.34;4989426;28;20254;-86
2023/12/26 09:14:02;;;;;;;1.73;1.17;;;;;;;9.94;57.91;94928.34;4989922;28;20597;-86
2023/12/26 09:16:30;;;;;;;2.87;1.40;;;;;;;9.99;57.70;94931.16;4987707;28;20760;-86
2023/12/26 09:18:57;;;;;;;2.23;1.40;;;;;;;10.10;57.80;94925.47;4989975;28;20199;-86
2023/12/26 09:21:24;;;;;;;1.67;1.43;;;;;;;10.21;57.64;94935.25;4989356;28;20243;-85
2023/12/26 09:23:50;;;;;;;3.37;1.30;;;;;;;10.41;57.16;94919.91;4990290;28;20192;-85
2023/12/26 09:26:21;;;;;;;2.60;1.20;;;;;;;10.30;57.33;94902.47;4989635;28;20232;-86
2023/12/26 09:28:48;;;;;;;3.07;1.30;;;;;;;10.37;57.10;94898.94;4989383;28;20208;-86
2023/12/26 09:31:15;;;;;;;3.07;1.40;;;;;;;10.55;57.17;94897.63;4996984;28;20549;-86
2023/12/26 09:33:42;;;;;;;1.20;1.07;;;;;;;10.77;56.08;94864.81;4985442;28;20235;-86
2023/12/26 09:36:09;;;;;;;1.67;1.40;;;;;;;10.80;56.10;94841.22;4989286;28;20230;-86
2023/12/26 09:38:35;;;;;;;1.97;1.60;;;;;;;10.95;55.67;94834.13;4980359;28;20211;-87
2023/12/26 09:41:02;;;;;;;1.80;1.27;;;;;;;11.11;60.53;95062.25;4988290;28;20207;-85
2023/12/26 09:43:28;;;;;;;2.70;1.33;;;;;;;11.28;57.14;94957.84;4990292;28;20294;-86
2023/12/26 09:45:56;;;;;;;1.67;1.50;;;;;;;11.23;55.45;94845.03;4990340;28;20231;-86
2023/12/26 09:48:22;;;;;;;4.00;1.57;;;;;;;11.25;55.29;94822.44;4988744;28;20761;-86
2023/12/26 09:50:54;;;;;;;2.30;1.17;;;;;;;11.28;54.83;94787.75;4987718;28;20233;-87
2023/12/26 09:53:23;;;;;;;4.60;1.50;;;;;;;11.30;58.64;94966.97;4991184;28;20222;-85
2023/12/26 09:55:50;;;;;;;1.17;1.07;;;;;;;11.33;54.62;94782.81;4989122;28;20230;-86
2023/12/26 09:58:17;;;;;;;2.40;1.20;;;;;;;11.24;54.56;94765.94;4990561;28;20207;-83
2023/12/26 10:00:45;;;;;;;4.43;1.30;;;;;;;11.47;59.01;95025.88;4991989;28;20214;-87
2023/12/26 10:03:12;;;;;;;2.47;1.50;;;;;;;11.43;55.50;94843.25;4988970;28;20688;-87
2023/12/26 10:05:39;;;;;;;9.40;1.97;;;;;;;11.54;58.02;94939.03;4988287;28;20326;-83
2023/12/26 10:08:07;;;;;;;1.50;1.10;;;;;;;11.51;53.70;94753.81;4990253;28;20203;-86
2023/12/26 10:13:22;;;;;;;1.60;1.00;;;;;;;11.37;52.96;94676.50;4982362;28;20235;-86
2023/12/26 10:15:49;;;;;;;2.30;1.20;;;;;;;11.28;52.21;94654.56;4989358;28;20238;-85
2023/12/26 10:18:17;;;;;;;1.83;1.20;;;;;;;11.31;52.18;94635.31;4990561;28;20203;-86
2023/12/26 10:20:43;;;;;;;2.67;1.17;;;;;;;11.34;52.15;94640.88;4983866;28;20742;-86
2023/12/26 10:23:12;;;;;;;1.20;1.00;;;;;;;11.38;52.12;94636.88;4981115;28;20200;-87
2023/12/26 10:25:38;;;;;;;1.57;1.10;;;;;;;11.38;51.84;94631.72;4989351;28;20227;-86
2023/12/26 10:28:06;;;;;;;2.43;1.20;;;;;;;11.41;51.82;94620.22;4990260;28;20206;-85
2023/12/26 10:30:33;;;;;;;2.13;1.20;;;;;;;11.36;51.63;94602.78;4988301;28;20208;-86
2023/12/26 10:33:02;;;;;;;2.00;1.37;;;;;;;11.44;51.63;94614.66;4988830;28;20219;-86
2023/12/26 10:35:28;;;;;;;2.30;1.50;;;;;;;11.45;51.91;94618.81;4988862;28;20230;-86
2023/12/26 10:37:57;;;;;;;1.40;1.20;;;;;;;11.42;51.49;94603.75;4988796;28;20200;-86
2023/12/26 10:40:25;;;;;;;1.37;1.20;;;;;;;11.36;51.48;94617.44;4987804;28;20206;-86
2023/12/26 10:42:52;;;;;;;2.67;1.40;;;;;;;11.25;51.45;94606.00;4988538;28;20241;-87
2023/12/26 10:45:20;;;;;;;2.03;1.13;;;;;;;11.19;51.72;94611.97;4988418;28;20259;-86
2023/12/26 10:47:55;;;;;;;1.20;1.00;;;;;;;11.26;51.62;94619.69;4989082;28;20199;-86
2023/12/26 10:50:22;;;;;;;1.33;1.20;;;;;;;11.32;51.91;94629.19;4988646;28;20203;-85
2023/12/26 10:52:52;;;;;;;2.00;1.10;;;;;;;11.23;51.34;94625.25;4989004;28;20214;-86
2023/12/26 10:55:20;;;;;;;1.30;1.17;;;;;;;11.25;51.96;94642.06;4987189;28;20227;-86
2023/12/26 10:57:51;;;;;;;2.30;1.37;;;;;;;11.14;51.50;94640.13;4988834;28;20199;-87
2023/12/26 11:00:19;;;;;;;1.57;1.30;;;;;;;11.06;51.93;94646.28;4988935;28;20200;-85
2023/12/26 11:02:45;;;;;;;2.30;1.40;;;;;;;11.10;51.91;94653.63;4988620;28;20199;-84
2023/12/26 11:05:11;;;;;;;2.20;1.23;;;;;;;11.06;52.10;94663.53;4988849;28;20231;-86
2023/12/26 11:07:37;;;;;;;1.93;1.23;;;;;;;11.06;52.01;94658.38;4988744;28;20211;-86
2023/12/26 11:10:03;;;;;;;1.93;1.20;;;;;;;11.12;52.07;94662.72;4988422;28;20211;-85
2023/12/26 11:12:29;;;;;;;1.40;1.17;;;;;;;11.13;52.30;94676.41;4984545;28;20210;-85
2023/12/26 11:14:56;;;;;;;1.60;1.27;;;;;;;11.12;52.71;94674.81;4988610;28;20223;-86
2023/12/26 11:17:25;;;;;;;1.77;1.47;;;;;;;11.20;52.41;94682.31;4988952;28;20298;-86
2023/12/26 11:19:51;;;;;;;1.93;1.20;;;;;;;11.18;52.31;94653.38;4988892;28;20234;-85
2023/12/26 11:22:17;;;;;;;1.70;1.00;;;;;;;11.18;52.11;94646.44;4989357;28;20195;-86
2023/12/26 11:24:43;;;;;;;1.73;1.10;;;;;;;11.06;51.99;94637.78;4989199;28;20200;-85
2023/12/26 11:27:12;;;;;;;1.30;1.20;;;;;;;11.10;52.08;94651.03;4987509;28;20196;-85
2023/12/26 11:29:37;;;;;;;1.80;1.03;;;;;;;11.11;52.12;94665.50;5001292;28;20215;-86
2023/12/26 11:32:05;;;;;;;5.47;1.43;;;;;;;11.04;52.04;94663.72;4992663;28;20196;-85
2023/12/26 11:34:31;;;;;;;1.97;1.20;;;;;;;11.09;52.19;94668.28;4992592;28;20227;-85
2023/12/26 11:36:57;;;;;;;2.00;1.37;;;;;;;11.10;52.19;94656.19;4987026;28;20193;-86
2023/12/26 11:39:25;;;;;;;1.30;1.20;;;;;;;11.11;52.16;94662.94;4979591;28;20703;-86
2023/12/26 11:41:50;;;;;;;2.30;1.20;;;;;;;11.09;52.27;94673.44;4990340;28;20204;-84
2023/12/26 11:44:17;;;;;;;1.50;1.17;;;;;;;11.11;52.51;94678.38;5000057;28;20192;-86